sensor_id;sensor_type;location;lat;lon;timestamp;P1;durP1;ratioP1;P2;durP2;ratioP2
70825;SDS011;58446;41.490;22.098;2022-10-30T00:00:29;23.17;;;12.97;;
70825;SDS011;58446;41.490;22.098;2022-10-30T00:02:55;22.15;;;13.73;;
70825;SDS011;58446;41.490;22.098;2022-10-30T00:05:20;21.92;;;13.98;;
70825;SDS011;58446;41.490;22.098;2022-10-30T00:07:46;20.90;;;13.87;;
70825;SDS011;58446;41.490;22.098;2022-10-30T00:10:12;23.70;;;14.48;;
70825;SDS011;58446;41.490;22.098;2022-10-30T00:12:38;23.60;;;12.90;;
70825;SDS011;58446;41.490;22.098;2022-10-30T00:15:04;19.20;;;12.93;;
70825;SDS011;58446;41.490;22.098;2022-10-30T00:17:30;22.88;;;14.05;;
70825;SDS011;58446;41.490;22.098;2022-10-30T00:19:57;22.17;;;15.15;;
70825;SDS011;58446;41.490;22.098;2022-10-30T00:22:22;28.00;;;16.20;;
70825;SDS011;58446;41.490;22.098;2022-10-30T00:24:48;23.75;;;15.90;;
70825;SDS011;58446;41.490;22.098;2022-10-30T00:27:14;23.97;;;14.07;;
70825;SDS011;58446;41.490;22.098;2022-10-30T00:29:39;23.55;;;14.88;;
70825;SDS011;58446;41.490;22.098;2022-10-30T00:32:06;25.90;;;14.77;;
70825;SDS011;58446;41.490;22.098;2022-10-30T00:34:32;27.15;;;18.13;;
70825;SDS011;58446;41.490;22.098;2022-10-30T00:36:57;31.40;;;18.93;;
70825;SDS011;58446;41.490;22.098;2022-10-30T00:39:23;23.60;;;16.70;;
70825;SDS011;58446;41.490;22.098;2022-10-30T00:41:48;24.50;;;15.65;;
70825;SDS011;58446;41.490;22.098;2022-10-30T00:47:14;24.35;;;15.50;;
70825;SDS011;58446;41.490;22.098;2022-10-30T00:49:49;24.55;;;15.68;;
70825;SDS011;58446;41.490;22.098;2022-10-30T00:52:28;24.25;;;13.73;;
70825;SDS011;58446;41.490;22.098;2022-10-30T00:55:02;24.30;;;14.00;;
70825;SDS011;58446;41.490;22.098;2022-10-30T00:57:55;23.13;;;14.05;;
70825;SDS011;58446;41.490;22.098;2022-10-30T01:00:22;23.65;;;14.95;;
70825;SDS011;58446;41.490;22.098;2022-10-30T01:02:50;20.13;;;12.85;;
70825;SDS011;58446;41.490;22.098;2022-10-30T01:05:17;20.35;;;11.77;;
70825;SDS011;58446;41.490;22.098;2022-10-30T01:07:45;18.20;;;12.10;;
70825;SDS011;58446;41.490;22.098;2022-10-30T01:10:11;22.95;;;13.05;;
70825;SDS011;58446;41.490;22.098;2022-10-30T01:12:38;19.23;;;13.48;;
70825;SDS011;58446;41.490;22.098;2022-10-30T01:15:05;20.13;;;12.30;;
70825;SDS011;58446;41.490;22.098;2022-10-30T01:17:35;22.13;;;13.90;;
70825;SDS011;58446;41.490;22.098;2022-10-30T01:20:27;19.23;;;13.13;;
70825;SDS011;58446;41.490;22.098;2022-10-30T01:23:14;19.17;;;12.35;;
70825;SDS011;58446;41.490;22.098;2022-10-30T01:26:02;19.42;;;12.15;;
70825;SDS011;58446;41.490;22.098;2022-10-30T01:31:50;21.20;;;12.35;;
70825;SDS011;58446;41.490;22.098;2022-10-30T01:34:36;20.63;;;11.98;;
70825;SDS011;58446;41.490;22.098;2022-10-30T01:37:21;22.08;;;12.82;;
70825;SDS011;58446;41.490;22.098;2022-10-30T01:39:55;20.60;;;12.88;;
70825;SDS011;58446;41.490;22.098;2022-10-30T01:48:02;20.08;;;13.23;;
70825;SDS011;58446;41.490;22.098;2022-10-30T01:53:42;18.50;;;12.13;;
70825;SDS011;58446;41.490;22.098;2022-10-30T02:02:12;19.80;;;12.20;;
70825;SDS011;58446;41.490;22.098;2022-10-30T02:04:38;21.75;;;12.38;;
70825;SDS011;58446;41.490;22.098;2022-10-30T02:07:04;18.13;;;11.73;;
70825;SDS011;58446;41.490;22.098;2022-10-30T02:09:30;18.42;;;11.60;;
70825;SDS011;58446;41.490;22.098;2022-10-30T02:11:55;18.90;;;12.00;;
70825;SDS011;58446;41.490;22.098;2022-10-30T02:14:23;19.20;;;11.20;;
70825;SDS011;58446;41.490;22.098;2022-10-30T02:16:53;16.23;;;11.38;;
70825;SDS011;58446;41.490;22.098;2022-10-30T02:19:21;16.08;;;11.02;;
70825;SDS011;58446;41.490;22.098;2022-10-30T02:21:47;16.60;;;10.53;;
70825;SDS011;58446;41.490;22.098;2022-10-30T02:24:13;18.75;;;12.70;;
70825;SDS011;58446;41.490;22.098;2022-10-30T02:26:39;18.80;;;12.10;;
70825;SDS011;58446;41.490;22.098;2022-10-30T02:29:04;18.15;;;12.07;;
70825;SDS011;58446;41.490;22.098;2022-10-30T02:31:30;15.83;;;11.63;;
70825;SDS011;58446;41.490;22.098;2022-10-30T02:33:56;19.55;;;12.82;;
70825;SDS011;58446;41.490;22.098;2022-10-30T02:36:21;17.83;;;10.83;;
70825;SDS011;58446;41.490;22.098;2022-10-30T02:38:47;18.13;;;11.32;;
70825;SDS011;58446;41.490;22.098;2022-10-30T02:41:13;19.77;;;12.13;;
70825;SDS011;58446;41.490;22.098;2022-10-30T02:43:38;21.73;;;15.80;;
70825;SDS011;58446;41.490;22.098;2022-10-30T02:46:04;22.00;;;13.80;;
70825;SDS011;58446;41.490;22.098;2022-10-30T02:48:30;28.98;;;18.63;;
70825;SDS011;58446;41.490;22.098;2022-10-30T02:51:00;37.30;;;23.73;;
70825;SDS011;58446;41.490;22.098;2022-10-30T02:53:27;29.52;;;17.33;;
70825;SDS011;58446;41.490;22.098;2022-10-30T02:55:53;26.27;;;17.48;;
70825;SDS011;58446;41.490;22.098;2022-10-30T02:58:18;22.20;;;14.67;;
70825;SDS011;58446;41.490;22.098;2022-10-30T03:00:44;19.65;;;13.50;;
70825;SDS011;58446;41.490;22.098;2022-10-30T03:03:10;17.97;;;11.50;;
70825;SDS011;58446;41.490;22.098;2022-10-30T03:05:35;21.02;;;14.30;;
70825;SDS011;58446;41.490;22.098;2022-10-30T03:08:01;23.67;;;15.57;;
70825;SDS011;58446;41.490;22.098;2022-10-30T03:10:27;23.70;;;13.18;;
70825;SDS011;58446;41.490;22.098;2022-10-30T03:12:52;17.93;;;12.63;;
70825;SDS011;58446;41.490;22.098;2022-10-30T03:15:18;17.95;;;12.38;;
70825;SDS011;58446;41.490;22.098;2022-10-30T03:17:44;18.00;;;12.23;;
70825;SDS011;58446;41.490;22.098;2022-10-30T03:20:09;19.45;;;12.70;;
70825;SDS011;58446;41.490;22.098;2022-10-30T03:22:36;18.13;;;12.40;;
70825;SDS011;58446;41.490;22.098;2022-10-30T03:25:01;20.15;;;12.45;;
70825;SDS011;58446;41.490;22.098;2022-10-30T03:27:27;17.60;;;11.60;;
70825;SDS011;58446;41.490;22.098;2022-10-30T03:29:53;17.40;;;11.83;;
70825;SDS011;58446;41.490;22.098;2022-10-30T03:32:18;16.13;;;11.60;;
70825;SDS011;58446;41.490;22.098;2022-10-30T03:34:44;16.65;;;11.30;;
70825;SDS011;58446;41.490;22.098;2022-10-30T03:37:10;17.93;;;11.70;;
70825;SDS011;58446;41.490;22.098;2022-10-30T03:39:35;17.05;;;11.70;;
70825;SDS011;58446;41.490;22.098;2022-10-30T03:42:01;17.30;;;12.03;;
70825;SDS011;58446;41.490;22.098;2022-10-30T03:44:26;16.90;;;11.67;;
70825;SDS011;58446;41.490;22.098;2022-10-30T03:46:52;18.17;;;12.20;;
70825;SDS011;58446;41.490;22.098;2022-10-30T03:49:17;18.03;;;12.43;;
70825;SDS011;58446;41.490;22.098;2022-10-30T03:51:43;18.08;;;11.18;;
70825;SDS011;58446;41.490;22.098;2022-10-30T03:54:09;21.33;;;11.67;;
70825;SDS011;58446;41.490;22.098;2022-10-30T03:56:34;16.75;;;11.63;;
70825;SDS011;58446;41.490;22.098;2022-10-30T03:59:00;19.50;;;13.90;;
70825;SDS011;58446;41.490;22.098;2022-10-30T04:01:26;17.65;;;11.98;;
70825;SDS011;58446;41.490;22.098;2022-10-30T04:03:51;18.93;;;12.10;;
70825;SDS011;58446;41.490;22.098;2022-10-30T04:06:17;18.77;;;12.63;;
70825;SDS011;58446;41.490;22.098;2022-10-30T04:08:42;17.83;;;11.27;;
70825;SDS011;58446;41.490;22.098;2022-10-30T04:11:09;17.83;;;12.37;;
70825;SDS011;58446;41.490;22.098;2022-10-30T04:13:37;18.98;;;12.90;;
70825;SDS011;58446;41.490;22.098;2022-10-30T04:16:03;18.67;;;12.50;;
70825;SDS011;58446;41.490;22.098;2022-10-30T04:18:29;20.03;;;13.07;;
70825;SDS011;58446;41.490;22.098;2022-10-30T04:20:55;17.80;;;11.93;;
70825;SDS011;58446;41.490;22.098;2022-10-30T04:23:24;18.83;;;12.27;;
70825;SDS011;58446;41.490;22.098;2022-10-30T04:25:50;17.90;;;12.87;;
70825;SDS011;58446;41.490;22.098;2022-10-30T04:28:15;17.63;;;11.88;;
70825;SDS011;58446;41.490;22.098;2022-10-30T04:30:41;18.47;;;11.07;;
70825;SDS011;58446;41.490;22.098;2022-10-30T04:33:09;17.58;;;11.10;;
70825;SDS011;58446;41.490;22.098;2022-10-30T04:35:36;18.20;;;11.10;;
70825;SDS011;58446;41.490;22.098;2022-10-30T04:38:03;17.52;;;11.30;;
70825;SDS011;58446;41.490;22.098;2022-10-30T04:40:32;17.67;;;11.15;;
70825;SDS011;58446;41.490;22.098;2022-10-30T04:42:58;19.47;;;12.10;;
70825;SDS011;58446;41.490;22.098;2022-10-30T04:45:24;19.58;;;12.85;;
70825;SDS011;58446;41.490;22.098;2022-10-30T04:47:50;26.00;;;13.23;;
70825;SDS011;58446;41.490;22.098;2022-10-30T04:50:17;25.70;;;13.65;;
70825;SDS011;58446;41.490;22.098;2022-10-30T04:52:42;24.57;;;13.30;;
70825;SDS011;58446;41.490;22.098;2022-10-30T04:55:09;25.38;;;13.40;;
70825;SDS011;58446;41.490;22.098;2022-10-30T04:57:35;23.83;;;13.55;;
70825;SDS011;58446;41.490;22.098;2022-10-30T05:00:02;20.17;;;12.98;;
70825;SDS011;58446;41.490;22.098;2022-10-30T05:02:29;33.38;;;16.60;;
70825;SDS011;58446;41.490;22.098;2022-10-30T05:04:55;21.33;;;14.00;;
70825;SDS011;58446;41.490;22.098;2022-10-30T05:07:21;64.60;;;27.73;;
70825;SDS011;58446;41.490;22.098;2022-10-30T05:09:46;30.02;;;15.82;;
70825;SDS011;58446;41.490;22.098;2022-10-30T05:12:12;41.00;;;19.73;;
70825;SDS011;58446;41.490;22.098;2022-10-30T05:14:37;31.38;;;16.98;;
70825;SDS011;58446;41.490;22.098;2022-10-30T05:17:03;25.50;;;15.07;;
70825;SDS011;58446;41.490;22.098;2022-10-30T05:19:29;23.50;;;13.88;;
70825;SDS011;58446;41.490;22.098;2022-10-30T05:21:54;19.43;;;13.20;;
70825;SDS011;58446;41.490;22.098;2022-10-30T05:24:20;20.73;;;12.27;;
70825;SDS011;58446;41.490;22.098;2022-10-30T05:26:46;18.13;;;12.07;;
70825;SDS011;58446;41.490;22.098;2022-10-30T05:29:11;19.80;;;12.20;;
70825;SDS011;58446;41.490;22.098;2022-10-30T05:31:37;18.10;;;12.10;;
70825;SDS011;58446;41.490;22.098;2022-10-30T05:34:03;17.95;;;11.63;;
70825;SDS011;58446;41.490;22.098;2022-10-30T05:36:29;18.17;;;11.77;;
70825;SDS011;58446;41.490;22.098;2022-10-30T05:38:54;16.33;;;11.35;;
70825;SDS011;58446;41.490;22.098;2022-10-30T05:41:20;17.53;;;12.23;;
70825;SDS011;58446;41.490;22.098;2022-10-30T05:43:46;16.98;;;12.57;;
70825;SDS011;58446;41.490;22.098;2022-10-30T05:46:11;16.80;;;11.43;;
70825;SDS011;58446;41.490;22.098;2022-10-30T05:48:37;18.13;;;12.20;;
70825;SDS011;58446;41.490;22.098;2022-10-30T05:51:03;17.53;;;12.80;;
70825;SDS011;58446;41.490;22.098;2022-10-30T05:53:30;17.52;;;12.00;;
70825;SDS011;58446;41.490;22.098;2022-10-30T05:55:56;15.27;;;12.25;;
70825;SDS011;58446;41.490;22.098;2022-10-30T05:58:23;19.10;;;11.87;;
70825;SDS011;58446;41.490;22.098;2022-10-30T06:00:49;18.67;;;12.18;;
70825;SDS011;58446;41.490;22.098;2022-10-30T06:03:14;19.10;;;12.57;;
70825;SDS011;58446;41.490;22.098;2022-10-30T06:05:42;18.63;;;11.77;;
70825;SDS011;58446;41.490;22.098;2022-10-30T06:08:09;16.40;;;11.23;;
70825;SDS011;58446;41.490;22.098;2022-10-30T06:10:35;17.20;;;11.70;;
70825;SDS011;58446;41.490;22.098;2022-10-30T06:13:02;20.00;;;14.18;;
70825;SDS011;58446;41.490;22.098;2022-10-30T06:15:30;28.48;;;21.33;;
70825;SDS011;58446;41.490;22.098;2022-10-30T06:17:56;32.05;;;22.27;;
70825;SDS011;58446;41.490;22.098;2022-10-30T06:20:23;34.23;;;23.57;;
70825;SDS011;58446;41.490;22.098;2022-10-30T06:22:54;37.83;;;27.73;;
70825;SDS011;58446;41.490;22.098;2022-10-30T06:25:28;47.83;;;29.75;;
70825;SDS011;58446;41.490;22.098;2022-10-30T06:27:54;54.50;;;31.55;;
70825;SDS011;58446;41.490;22.098;2022-10-30T06:30:20;56.08;;;35.30;;
70825;SDS011;58446;41.490;22.098;2022-10-30T06:32:47;63.63;;;37.97;;
70825;SDS011;58446;41.490;22.098;2022-10-30T06:35:13;61.10;;;37.70;;
70825;SDS011;58446;41.490;22.098;2022-10-30T06:37:47;77.95;;;45.95;;
70825;SDS011;58446;41.490;22.098;2022-10-30T06:40:14;77.80;;;46.77;;
70825;SDS011;58446;41.490;22.098;2022-10-30T06:42:43;72.50;;;46.50;;
70825;SDS011;58446;41.490;22.098;2022-10-30T06:45:10;68.70;;;44.45;;
70825;SDS011;58446;41.490;22.098;2022-10-30T06:47:37;86.85;;;60.95;;
70825;SDS011;58446;41.490;22.098;2022-10-30T06:50:08;65.28;;;45.58;;
70825;SDS011;58446;41.490;22.098;2022-10-30T06:52:38;61.93;;;45.17;;
70825;SDS011;58446;41.490;22.098;2022-10-30T06:55:03;53.97;;;37.83;;
70825;SDS011;58446;41.490;22.098;2022-10-30T06:57:29;51.83;;;37.40;;
70825;SDS011;58446;41.490;22.098;2022-10-30T06:59:55;46.53;;;33.08;;
70825;SDS011;58446;41.490;22.098;2022-10-30T07:02:21;48.67;;;31.97;;
70825;SDS011;58446;41.490;22.098;2022-10-30T07:04:47;47.00;;;32.30;;
70825;SDS011;58446;41.490;22.098;2022-10-30T07:07:13;49.30;;;30.30;;
70825;SDS011;58446;41.490;22.098;2022-10-30T07:09:39;47.10;;;31.30;;
70825;SDS011;58446;41.490;22.098;2022-10-30T07:12:05;76.33;;;39.43;;
70825;SDS011;58446;41.490;22.098;2022-10-30T07:14:31;85.35;;;43.92;;
70825;SDS011;58446;41.490;22.098;2022-10-30T07:16:57;107.13;;;56.28;;
70825;SDS011;58446;41.490;22.098;2022-10-30T07:19:23;75.13;;;45.10;;
70825;SDS011;58446;41.490;22.098;2022-10-30T07:21:48;37.40;;;23.80;;
70825;SDS011;58446;41.490;22.098;2022-10-30T07:24:14;38.25;;;24.92;;
70825;SDS011;58446;41.490;22.098;2022-10-30T07:26:40;35.80;;;22.27;;
70825;SDS011;58446;41.490;22.098;2022-10-30T07:29:06;30.37;;;20.70;;
70825;SDS011;58446;41.490;22.098;2022-10-30T07:31:32;30.53;;;20.03;;
70825;SDS011;58446;41.490;22.098;2022-10-30T07:33:58;33.92;;;22.90;;
70825;SDS011;58446;41.490;22.098;2022-10-30T07:36:23;40.37;;;24.03;;
70825;SDS011;58446;41.490;22.098;2022-10-30T07:38:49;34.60;;;19.98;;
70825;SDS011;58446;41.490;22.098;2022-10-30T07:41:19;27.30;;;14.80;;
70825;SDS011;58446;41.490;22.098;2022-10-30T07:43:45;20.30;;;13.10;;
70825;SDS011;58446;41.490;22.098;2022-10-30T07:46:11;21.23;;;15.90;;
70825;SDS011;58446;41.490;22.098;2022-10-30T07:48:37;18.63;;;12.88;;
70825;SDS011;58446;41.490;22.098;2022-10-30T07:51:03;15.68;;;11.60;;
70825;SDS011;58446;41.490;22.098;2022-10-30T07:53:29;16.98;;;11.60;;
70825;SDS011;58446;41.490;22.098;2022-10-30T07:55:55;20.17;;;13.93;;
70825;SDS011;58446;41.490;22.098;2022-10-30T07:58:21;17.85;;;11.48;;
70825;SDS011;58446;41.490;22.098;2022-10-30T08:00:47;19.00;;;12.03;;
70825;SDS011;58446;41.490;22.098;2022-10-30T08:03:13;15.87;;;11.47;;
70825;SDS011;58446;41.490;22.098;2022-10-30T08:05:39;18.90;;;11.27;;
70825;SDS011;58446;41.490;22.098;2022-10-30T08:08:05;16.73;;;11.48;;
70825;SDS011;58446;41.490;22.098;2022-10-30T08:10:32;14.90;;;9.90;;
70825;SDS011;58446;41.490;22.098;2022-10-30T08:12:57;14.40;;;9.97;;
70825;SDS011;58446;41.490;22.098;2022-10-30T08:15:23;17.67;;;11.38;;
70825;SDS011;58446;41.490;22.098;2022-10-30T08:17:49;18.00;;;12.00;;
70825;SDS011;58446;41.490;22.098;2022-10-30T08:20:17;14.55;;;9.48;;
70825;SDS011;58446;41.490;22.098;2022-10-30T08:25:13;15.98;;;10.73;;
70825;SDS011;58446;41.490;22.098;2022-10-30T08:27:47;16.53;;;10.67;;
70825;SDS011;58446;41.490;22.098;2022-10-30T08:30:24;16.45;;;11.15;;
70825;SDS011;58446;41.490;22.098;2022-10-30T08:32:51;15.13;;;10.90;;
70825;SDS011;58446;41.490;22.098;2022-10-30T08:35:16;15.57;;;12.07;;
70825;SDS011;58446;41.490;22.098;2022-10-30T08:37:44;14.98;;;10.10;;
70825;SDS011;58446;41.490;22.098;2022-10-30T08:40:10;21.85;;;15.05;;
70825;SDS011;58446;41.490;22.098;2022-10-30T08:42:36;17.97;;;13.00;;
70825;SDS011;58446;41.490;22.098;2022-10-30T08:45:02;22.25;;;13.10;;
70825;SDS011;58446;41.490;22.098;2022-10-30T08:47:28;19.88;;;12.15;;
70825;SDS011;58446;41.490;22.098;2022-10-30T08:49:54;18.80;;;11.50;;
70825;SDS011;58446;41.490;22.098;2022-10-30T08:52:20;16.00;;;11.70;;
70825;SDS011;58446;41.490;22.098;2022-10-30T08:54:45;15.80;;;11.43;;
70825;SDS011;58446;41.490;22.098;2022-10-30T08:57:11;19.67;;;11.30;;
70825;SDS011;58446;41.490;22.098;2022-10-30T08:59:37;17.07;;;10.57;;
70825;SDS011;58446;41.490;22.098;2022-10-30T09:02:02;15.27;;;10.17;;
70825;SDS011;58446;41.490;22.098;2022-10-30T09:04:28;13.47;;;9.70;;
70825;SDS011;58446;41.490;22.098;2022-10-30T09:06:53;14.73;;;10.30;;
70825;SDS011;58446;41.490;22.098;2022-10-30T09:09:19;15.03;;;9.83;;
70825;SDS011;58446;41.490;22.098;2022-10-30T09:11:46;14.50;;;10.13;;
70825;SDS011;58446;41.490;22.098;2022-10-30T09:14:13;14.23;;;9.55;;
70825;SDS011;58446;41.490;22.098;2022-10-30T09:16:38;12.32;;;8.93;;
70825;SDS011;58446;41.490;22.098;2022-10-30T09:19:04;17.00;;;10.07;;
70825;SDS011;58446;41.490;22.098;2022-10-30T09:21:30;22.48;;;12.77;;
70825;SDS011;58446;41.490;22.098;2022-10-30T09:23:55;19.67;;;11.70;;
70825;SDS011;58446;41.490;22.098;2022-10-30T09:26:21;27.80;;;15.43;;
70825;SDS011;58446;41.490;22.098;2022-10-30T09:28:47;20.97;;;12.07;;
70825;SDS011;58446;41.490;22.098;2022-10-30T09:31:13;15.40;;;9.50;;
70825;SDS011;58446;41.490;22.098;2022-10-30T09:33:39;18.10;;;11.40;;
70825;SDS011;58446;41.490;22.098;2022-10-30T09:36:05;16.83;;;10.85;;
70825;SDS011;58446;41.490;22.098;2022-10-30T09:38:31;14.75;;;10.52;;
70825;SDS011;58446;41.490;22.098;2022-10-30T10:00:11;12.30;;;8.35;;
70825;SDS011;58446;41.490;22.098;2022-10-30T10:07:50;13.73;;;8.38;;
70825;SDS011;58446;41.490;22.098;2022-10-30T10:10:34;13.68;;;8.40;;
70825;SDS011;58446;41.490;22.098;2022-10-30T10:13:03;14.25;;;8.48;;
70825;SDS011;58446;41.490;22.098;2022-10-30T10:18:22;14.13;;;8.30;;
70825;SDS011;58446;41.490;22.098;2022-10-30T10:20:54;14.25;;;7.63;;
70825;SDS011;58446;41.490;22.098;2022-10-30T10:26:25;12.48;;;7.72;;
70825;SDS011;58446;41.490;22.098;2022-10-30T10:29:11;13.05;;;8.20;;
70825;SDS011;58446;41.490;22.098;2022-10-30T10:34:42;13.38;;;7.65;;
70825;SDS011;58446;41.490;22.098;2022-10-30T10:43:24;11.88;;;7.45;;
70825;SDS011;58446;41.490;22.098;2022-10-30T10:48:44;9.90;;;6.45;;
70825;SDS011;58446;41.490;22.098;2022-10-30T10:51:35;10.27;;;6.32;;
70825;SDS011;58446;41.490;22.098;2022-10-30T10:54:17;12.02;;;6.70;;
70825;SDS011;58446;41.490;22.098;2022-10-30T10:56:48;10.15;;;6.70;;
70825;SDS011;58446;41.490;22.098;2022-10-30T11:04:23;11.75;;;7.53;;
70825;SDS011;58446;41.490;22.098;2022-10-30T11:06:56;10.95;;;5.97;;
70825;SDS011;58446;41.490;22.098;2022-10-30T11:09:23;11.55;;;6.85;;
70825;SDS011;58446;41.490;22.098;2022-10-30T11:11:53;11.20;;;6.60;;
70825;SDS011;58446;41.490;22.098;2022-10-30T11:14:20;11.10;;;5.97;;
70825;SDS011;58446;41.490;22.098;2022-10-30T11:19:48;11.75;;;4.82;;
70825;SDS011;58446;41.490;22.098;2022-10-30T11:22:23;10.93;;;5.55;;
70825;SDS011;58446;41.490;22.098;2022-10-30T11:24:53;8.43;;;5.03;;
70825;SDS011;58446;41.490;22.098;2022-10-30T11:29:51;10.15;;;5.10;;
70825;SDS011;58446;41.490;22.098;2022-10-30T11:32:25;10.60;;;5.10;;
70825;SDS011;58446;41.490;22.098;2022-10-30T11:35:02;9.38;;;4.65;;
70825;SDS011;58446;41.490;22.098;2022-10-30T11:37:37;8.70;;;5.97;;
70825;SDS011;58446;41.490;22.098;2022-10-30T11:40:05;11.45;;;6.93;;
70825;SDS011;58446;41.490;22.098;2022-10-30T11:42:31;12.60;;;6.97;;
70825;SDS011;58446;41.490;22.098;2022-10-30T11:44:58;9.97;;;6.17;;
70825;SDS011;58446;41.490;22.098;2022-10-30T11:47:32;9.75;;;5.90;;
70825;SDS011;58446;41.490;22.098;2022-10-30T11:50:19;9.60;;;5.15;;
70825;SDS011;58446;41.490;22.098;2022-10-30T11:52:48;10.07;;;5.32;;
70825;SDS011;58446;41.490;22.098;2022-10-30T11:55:24;8.85;;;4.80;;
70825;SDS011;58446;41.490;22.098;2022-10-30T11:57:54;9.30;;;5.60;;
70825;SDS011;58446;41.490;22.098;2022-10-30T12:00:23;10.20;;;5.03;;
70825;SDS011;58446;41.490;22.098;2022-10-30T12:02:51;11.02;;;5.65;;
70825;SDS011;58446;41.490;22.098;2022-10-30T12:07:50;10.38;;;5.55;;
70825;SDS011;58446;41.490;22.098;2022-10-30T12:10:23;7.87;;;4.70;;
70825;SDS011;58446;41.490;22.098;2022-10-30T12:12:50;10.55;;;5.60;;
70825;SDS011;58446;41.490;22.098;2022-10-30T12:15:20;9.55;;;5.50;;
70825;SDS011;58446;41.490;22.098;2022-10-30T12:17:53;10.00;;;4.95;;
70825;SDS011;58446;41.490;22.098;2022-10-30T12:20:25;8.83;;;5.10;;
70825;SDS011;58446;41.490;22.098;2022-10-30T12:22:52;9.82;;;4.97;;
70825;SDS011;58446;41.490;22.098;2022-10-30T12:27:47;7.40;;;4.53;;
70825;SDS011;58446;41.490;22.098;2022-10-30T12:30:16;11.40;;;5.83;;
70825;SDS011;58446;41.490;22.098;2022-10-30T12:35:50;7.80;;;4.75;;
70825;SDS011;58446;41.490;22.098;2022-10-30T12:41:13;10.25;;;4.63;;
70825;SDS011;58446;41.490;22.098;2022-10-30T12:43:48;9.13;;;4.77;;
70825;SDS011;58446;41.490;22.098;2022-10-30T12:49:16;9.52;;;4.78;;
70825;SDS011;58446;41.490;22.098;2022-10-30T12:51:58;9.02;;;5.13;;
70825;SDS011;58446;41.490;22.098;2022-10-30T12:57:06;34.77;;;29.80;;
70825;SDS011;58446;41.490;22.098;2022-10-30T12:59:48;15.68;;;10.15;;
70825;SDS011;58446;41.490;22.098;2022-10-30T13:05:23;15.73;;;7.30;;
70825;SDS011;58446;41.490;22.098;2022-10-30T13:10:53;9.50;;;5.50;;
70825;SDS011;58446;41.490;22.098;2022-10-30T13:13:32;13.95;;;8.77;;
70825;SDS011;58446;41.490;22.098;2022-10-30T13:16:01;11.55;;;9.18;;
70825;SDS011;58446;41.490;22.098;2022-10-30T13:18:32;11.63;;;6.50;;
70825;SDS011;58446;41.490;22.098;2022-10-30T13:34:31;21.00;;;7.55;;
70825;SDS011;58446;41.490;22.098;2022-10-30T13:37:07;30.00;;;18.03;;
70825;SDS011;58446;41.490;22.098;2022-10-30T13:47:53;14.20;;;8.55;;
70825;SDS011;58446;41.490;22.098;2022-10-30T13:53:11;13.32;;;7.85;;
70825;SDS011;58446;41.490;22.098;2022-10-30T13:55:39;14.77;;;6.68;;
70825;SDS011;58446;41.490;22.098;2022-10-30T14:00:49;10.63;;;5.65;;
70825;SDS011;58446;41.490;22.098;2022-10-30T14:15:12;9.50;;;5.47;;
70825;SDS011;58446;41.490;22.098;2022-10-30T14:20:37;10.55;;;6.20;;
70825;SDS011;58446;41.490;22.098;2022-10-30T14:25:44;11.57;;;6.80;;
70825;SDS011;58446;41.490;22.098;2022-10-30T14:28:37;13.98;;;7.22;;
70825;SDS011;58446;41.490;22.098;2022-10-30T14:31:09;11.90;;;5.80;;
70825;SDS011;58446;41.490;22.098;2022-10-30T14:33:41;8.75;;;4.93;;
70825;SDS011;58446;41.490;22.098;2022-10-30T14:36:14;12.15;;;5.82;;
70825;SDS011;58446;41.490;22.098;2022-10-30T14:39:00;9.45;;;5.13;;
70825;SDS011;58446;41.490;22.098;2022-10-30T14:49:53;11.65;;;5.50;;
70825;SDS011;58446;41.490;22.098;2022-10-30T14:57:50;20.27;;;12.63;;
70825;SDS011;58446;41.490;22.098;2022-10-30T15:11:12;10.27;;;6.40;;
70825;SDS011;58446;41.490;22.098;2022-10-30T15:13:54;9.53;;;5.87;;
70825;SDS011;58446;41.490;22.098;2022-10-30T15:16:23;10.98;;;5.93;;
70825;SDS011;58446;41.490;22.098;2022-10-30T15:18:56;12.68;;;6.97;;
70825;SDS011;58446;41.490;22.098;2022-10-30T15:21:26;12.40;;;6.88;;
70825;SDS011;58446;41.490;22.098;2022-10-30T15:23:57;13.30;;;6.32;;
70825;SDS011;58446;41.490;22.098;2022-10-30T15:26:26;11.73;;;5.47;;
70825;SDS011;58446;41.490;22.098;2022-10-30T15:28:57;12.05;;;5.82;;
70825;SDS011;58446;41.490;22.098;2022-10-30T15:31:24;11.77;;;6.55;;
70825;SDS011;58446;41.490;22.098;2022-10-30T15:33:51;11.88;;;6.68;;
70825;SDS011;58446;41.490;22.098;2022-10-30T15:36:28;10.38;;;5.55;;
70825;SDS011;58446;41.490;22.098;2022-10-30T15:41:37;10.23;;;6.35;;
70825;SDS011;58446;41.490;22.098;2022-10-30T15:44:09;11.55;;;6.97;;
70825;SDS011;58446;41.490;22.098;2022-10-30T15:46:37;15.88;;;7.93;;
70825;SDS011;58446;41.490;22.098;2022-10-30T15:49:03;18.92;;;12.00;;
70825;SDS011;58446;41.490;22.098;2022-10-30T15:51:29;16.30;;;10.87;;
70825;SDS011;58446;41.490;22.098;2022-10-30T15:53:55;38.22;;;25.17;;
70825;SDS011;58446;41.490;22.098;2022-10-30T15:56:34;59.42;;;28.42;;
70825;SDS011;58446;41.490;22.098;2022-10-30T15:59:06;35.80;;;17.53;;
70825;SDS011;58446;41.490;22.098;2022-10-30T16:01:44;59.40;;;33.55;;
70825;SDS011;58446;41.490;22.098;2022-10-30T16:04:15;71.28;;;44.00;;
70825;SDS011;58446;41.490;22.098;2022-10-30T16:10:00;91.22;;;55.42;;
70825;SDS011;58446;41.490;22.098;2022-10-30T16:12:30;165.77;;;90.60;;
70825;SDS011;58446;41.490;22.098;2022-10-30T16:15:03;185.27;;;101.82;;
70825;SDS011;58446;41.490;22.098;2022-10-30T16:17:32;196.40;;;108.03;;
70825;SDS011;58446;41.490;22.098;2022-10-30T16:19:59;214.75;;;117.50;;
70825;SDS011;58446;41.490;22.098;2022-10-30T16:22:27;225.13;;;118.03;;
70825;SDS011;58446;41.490;22.098;2022-10-30T16:24:57;219.53;;;121.40;;
70825;SDS011;58446;41.490;22.098;2022-10-30T16:27:24;222.82;;;115.45;;
70825;SDS011;58446;41.490;22.098;2022-10-30T16:29:55;236.30;;;125.05;;
70825;SDS011;58446;41.490;22.098;2022-10-30T16:32:26;304.42;;;145.90;;
70825;SDS011;58446;41.490;22.098;2022-10-30T16:34:58;287.42;;;145.30;;
70825;SDS011;58446;41.490;22.098;2022-10-30T16:37:32;200.17;;;111.70;;
70825;SDS011;58446;41.490;22.098;2022-10-30T16:40:21;216.02;;;118.55;;
70825;SDS011;58446;41.490;22.098;2022-10-30T16:42:50;253.48;;;136.00;;
70825;SDS011;58446;41.490;22.098;2022-10-30T16:48:00;331.65;;;154.35;;
70825;SDS011;58446;41.490;22.098;2022-10-30T16:50:33;582.80;;;278.47;;
70825;SDS011;58446;41.490;22.098;2022-10-30T16:53:06;575.78;;;276.45;;
70825;SDS011;58446;41.490;22.098;2022-10-30T16:55:43;346.63;;;170.55;;
70825;SDS011;58446;41.490;22.098;2022-10-30T16:58:10;334.88;;;169.88;;
70825;SDS011;58446;41.490;22.098;2022-10-30T17:00:37;362.57;;;183.97;;
70825;SDS011;58446;41.490;22.098;2022-10-30T17:03:06;371.42;;;190.65;;
70825;SDS011;58446;41.490;22.098;2022-10-30T17:05:34;336.48;;;174.05;;
70825;SDS011;58446;41.490;22.098;2022-10-30T17:08:04;312.00;;;162.90;;
70825;SDS011;58446;41.490;22.098;2022-10-30T17:10:44;257.52;;;140.93;;
70825;SDS011;58446;41.490;22.098;2022-10-30T17:13:34;272.83;;;152.77;;
70825;SDS011;58446;41.490;22.098;2022-10-30T17:18:43;319.98;;;182.88;;